Time;durP1;ratioP1;P1;durP2;ratioP2;P2;SDS_P1;SDS_P2;PMS_P1;PMS_P2;Temp;Humidity;BMP_temperature;BMP_pressure;BME280_temperature;BME280_humidity;BME280_pressure;Samples;Min_cycle;Max_cycle;Signal;HPM_P1;HPM_P2
2023/12/14 00:01:30;;;;;;;;;;;16.60;55.20;;;;;;5063534;28;44372;-81
2023/12/14 00:03:55;;;;;;;;;;;16.70;55.30;;;;;;5066591;28;42803;-82
2023/12/14 00:06:21;;;;;;;;;;;16.60;55.10;;;;;;5066534;28;43542;-82
2023/12/14 00:08:46;;;;;;;;;;;16.60;55.40;;;;;;5066708;28;42990;-81
2023/12/14 00:11:12;;;;;;;;;;;16.70;54.80;;;;;;5066892;28;42949;-82
2023/12/14 00:13:38;;;;;;;;;;;16.70;55.30;;;;;;5067203;28;42886;-82
2023/12/14 00:16:03;;;;;;;;;;;16.60;54.80;;;;;;5048922;28;45489;-83
2023/12/14 00:18:29;;;;;;;;;;;16.60;54.90;;;;;;5066724;28;42923;-83
2023/12/14 00:20:55;;;;;;;;;;;16.60;55.30;;;;;;5066830;28;43775;-84
2023/12/14 00:23:21;;;;;;;;;;;16.50;55.30;;;;;;5066116;28;42918;-82
2023/12/14 00:25:46;;;;;;;;;;;16.70;54.80;;;;;;5065575;28;42859;-83
2023/12/14 00:28:12;;;;;;;;;;;16.50;54.80;;;;;;5065435;28;43053;-83
2023/12/14 00:30:37;;;;;;;;;;;16.70;54.90;;;;;;5047956;28;45001;-81
2023/12/14 00:33:03;;;;;;;;;;;16.70;55.30;;;;;;5067000;28;43031;-84
2023/12/14 00:35:28;;;;;;;;;;;16.70;55.00;;;;;;5066349;28;42934;-83
2023/12/14 00:37:54;;;;;;;;;;;16.60;55.40;;;;;;5066601;28;42934;-83
2023/12/14 00:40:19;;;;;;;;;;;16.60;55.60;;;;;;5047567;28;42955;-82
2023/12/14 00:42:45;;;;;;;;;;;16.60;55.00;;;;;;5066484;28;42879;-84
2023/12/14 00:45:10;;;;;;;;;;;16.50;55.20;;;;;;5066402;28;43611;-84
2023/12/14 00:47:36;;;;;;;;;;;16.60;55.00;;;;;;5066300;28;42835;-83
2023/12/14 00:50:02;;;;;;;;;;;16.80;55.60;;;;;;5065838;28;42970;-83
2023/12/14 00:52:27;;;;;;;;;;;16.50;55.30;;;;;;5065871;28;42913;-83
2023/12/14 00:54:53;;;;;;;;;;;16.50;55.40;;;;;;5066043;28;45467;-84
2023/12/14 00:57:18;;;;;;;;;;;16.60;55.50;;;;;;5065350;28;42962;-85
2023/12/14 00:59:44;;;;;;;;;;;16.70;55.00;;;;;;5071009;28;43062;-84
2023/12/14 01:02:09;;;;;;;;;;;16.70;55.00;;;;;;5067329;28;42851;-84
2023/12/14 01:04:35;;;;;;;;;;;16.50;55.40;;;;;;5065819;28;43994;-84
2023/12/14 01:07:01;;;;;;;;;;;16.50;55.40;;;;;;5066006;28;42910;-82
2023/12/14 01:09:26;;;;;;;;;;;16.50;54.90;;;;;;5065969;28;43572;-83
2023/12/14 01:11:52;;;;;;;;;;;16.70;55.30;;;;;;5066491;28;42976;-80
2023/12/14 01:14:17;;;;;;;;;;;16.50;55.30;;;;;;5065726;28;43009;-83
2023/12/14 01:16:42;;;;;;;;;;;16.70;55.00;;;;;;5066324;28;42950;-83
2023/12/14 01:19:08;;;;;;;;;;;16.70;55.50;;;;;;5066452;28;43608;-84
2023/12/14 01:21:33;;;;;;;;;;;16.70;55.00;;;;;;5066545;28;42787;-83
2023/12/14 01:24:00;;;;;;;;;;;16.40;55.30;;;;;;5066201;28;42800;-83
2023/12/14 01:26:26;;;;;;;;;;;16.70;55.10;;;;;;5065984;28;42839;-82
2023/12/14 01:28:52;;;;;;;;;;;16.50;55.50;;;;;;5065568;28;43644;-80
2023/12/14 01:31:18;;;;;;;;;;;;;;;;;;5065580;28;42931;-81
2023/12/14 01:33:45;;;;;;;;;;;16.60;53.70;;;;;;5064018;28;42929;-83
2023/12/14 01:36:11;;;;;;;;;;;16.60;55.00;;;;;;5065397;28;43080;-83
2023/12/14 01:38:37;;;;;;;;;;;16.70;55.10;;;;;;5065505;28;43474;-83
2023/12/14 01:41:02;;;;;;;;;;;16.50;55.60;;;;;;5065621;28;42924;-84
2023/12/14 01:43:28;;;;;;;;;;;16.70;55.20;;;;;;5065432;28;44851;-84
2023/12/14 01:45:53;;;;;;;;;;;16.60;55.00;;;;;;5065302;28;42677;-84
2023/12/14 01:48:19;;;;;;;;;;;16.60;55.10;;;;;;5065206;28;42957;-84
2023/12/14 01:50:44;;;;;;;;;;;16.60;55.10;;;;;;5065767;28;42870;-84
2023/12/14 01:53:09;;;;;;;;;;;16.60;55.10;;;;;;5065617;28;42918;-83
2023/12/14 01:55:35;;;;;;;;;;;16.60;55.10;;;;;;5065966;28;43080;-82
2023/12/14 01:58:00;;;;;;;;;;;16.70;55.20;;;;;;5065575;28;43524;-82
2023/12/14 02:00:55;;;;;;;;;;;16.50;55.10;;;;;;5065095;28;43001;-84
2023/12/14 02:03:21;;;;;;;;;;;16.70;55.40;;;;;;5047265;28;44064;-83
2023/12/14 02:05:46;;;;;;;;;;;16.40;55.50;;;;;;5065778;28;42830;-81
2023/12/14 02:08:11;;;;;;;;;;;16.50;55.60;;;;;;5065105;28;43807;-83
2023/12/14 02:10:37;;;;;;;;;;;16.70;55.80;;;;;;5065166;28;42812;-84
2023/12/14 02:13:03;;;;;;;;;;;16.70;55.30;;;;;;5065408;28;43078;-81
2023/12/14 02:15:28;;;;;;;;;;;16.70;55.30;;;;;;5065048;28;43001;-84
2023/12/14 02:17:54;;;;;;;;;;;16.80;55.90;;;;;;5065350;28;43672;-83
2023/12/14 02:20:19;;;;;;;;;;;16.60;55.30;;;;;;5065048;28;42918;-81
2023/12/14 02:22:50;;;;;;;;;;;16.60;55.40;;;;;;5064963;28;43058;-84
2023/12/14 02:25:15;;;;;;;;;;;16.50;54.20;;;;;;5065209;28;43005;-83
2023/12/14 02:27:41;;;;;;;;;;;16.50;55.80;;;;;;5046089;28;43097;-81
2023/12/14 02:30:07;;;;;;;;;;;16.70;55.40;;;;;;5064075;28;42954;-82
2023/12/14 02:32:32;;;;;;;;;;;16.50;55.20;;;;;;5064277;28;42912;-82
2023/12/14 02:34:58;;;;;;;;;;;16.60;55.30;;;;;;5064928;28;42885;-83
2023/12/14 02:37:23;;;;;;;;;;;16.50;55.60;;;;;;5064906;28;43779;-81
2023/12/14 02:39:49;;;;;;;;;;;16.50;55.30;;;;;;5064151;28;43028;-82
2023/12/14 02:42:14;;;;;;;;;;;16.70;55.30;;;;;;5063917;28;42921;-85
2023/12/14 02:44:40;;;;;;;;;;;16.50;55.60;;;;;;5063523;28;42994;-85
2023/12/14 02:47:05;;;;;;;;;;;16.50;55.60;;;;;;5064155;28;43649;-82
2023/12/14 02:49:31;;;;;;;;;;;16.50;55.30;;;;;;5064313;28;42961;-84
2023/12/14 02:51:57;;;;;;;;;;;16.50;55.80;;;;;;5068079;28;43497;-83
2023/12/14 02:54:22;;;;;;;;;;;16.60;55.30;;;;;;5067889;28;42941;-84
2023/12/14 02:56:48;;;;;;;;;;;16.70;55.40;;;;;;5068059;28;43730;-84
2023/12/14 02:59:13;;;;;;;;;;;16.50;55.60;;;;;;5068132;28;42956;-84
2023/12/14 03:01:39;;;;;;;;;;;16.50;55.30;;;;;;5068200;28;42812;-84
2023/12/14 03:04:06;;;;;;;;;;;16.50;55.90;;;;;;5068356;28;42879;-84
2023/12/14 03:06:31;;;;;;;;;;;16.50;55.80;;;;;;5068294;28;43475;-84
2023/12/14 03:08:57;;;;;;;;;;;16.50;55.70;;;;;;5067005;28;43047;-83
2023/12/14 03:11:25;;;;;;;;;;;16.50;55.30;;;;;;5067983;28;42942;-84
2023/12/14 03:13:51;;;;;;;;;;;16.70;54.90;;;;;;5054446;28;43128;-85
2023/12/14 03:16:17;;;;;;;;;;;16.40;55.70;;;;;;5072365;28;42744;-84
2023/12/14 03:18:43;;;;;;;;;;;16.50;56.40;;;;;;5062448;28;43001;-83
2023/12/14 03:21:09;;;;;;;;;;;16.50;55.50;;;;;;5046920;28;44116;-83
2023/12/14 03:23:34;;;;;;;;;;;16.40;55.40;;;;;;5047805;28;42925;-81
2023/12/14 03:26:01;;;;;;;;;;;16.60;55.30;;;;;;5047623;28;43524;-82
2023/12/14 03:28:26;;;;;;;;;;;16.60;55.60;;;;;;5047074;28;43005;-83
2023/12/14 03:30:52;;;;;;;;;;;16.50;55.40;;;;;;5047113;28;43080;-84
2023/12/14 03:33:18;;;;;;;;;;;16.50;56.00;;;;;;5052353;28;43073;-85
2023/12/14 03:35:44;;;;;;;;;;;16.70;55.60;;;;;;5068107;28;42816;-81
2023/12/14 03:38:09;;;;;;;;;;;16.60;55.70;;;;;;5067767;28;42998;-85
2023/12/14 03:40:35;;;;;;;;;;;16.50;56.00;;;;;;5067718;28;42918;-82
2023/12/14 03:43:03;;;;;;;;;;;16.70;55.80;;;;;;5067435;28;43109;-81
2023/12/14 03:45:28;;;;;;;;;;;16.50;55.30;;;;;;5067376;28;42935;-84
2023/12/14 03:47:54;;;;;;;;;;;16.60;55.40;;;;;;5067026;28;42913;-81
2023/12/14 03:50:20;;;;;;;;;;;16.70;54.90;;;;;;5066011;28;43024;-84
2023/12/14 03:52:46;;;;;;;;;;;16.50;54.90;;;;;;5067697;28;43066;-84
2023/12/14 03:55:12;;;;;;;;;;;16.50;56.20;;;;;;5067311;28;43289;-84
2023/12/14 03:57:37;;;;;;;;;;;16.50;55.70;;;;;;5067753;28;42827;-81
2023/12/14 04:00:03;;;;;;;;;;;16.60;55.60;;;;;;5067715;28;43612;-84
2023/12/14 04:02:28;;;;;;;;;;;16.40;55.00;;;;;;5065784;28;42967;-84
2023/12/14 04:04:54;;;;;;;;;;;16.60;55.30;;;;;;5067334;28;43426;-80
2023/12/14 04:07:20;;;;;;;;;;;16.90;55.90;;;;;;5065677;28;43061;-83
2023/12/14 04:09:45;;;;;;;;;;;16.70;55.40;;;;;;5066646;28;43492;-84
2023/12/14 04:12:11;;;;;;;;;;;16.60;55.30;;;;;;5065497;28;42874;-81
2023/12/14 04:14:36;;;;;;;;;;;16.50;55.40;;;;;;5066255;28;43530;-83
2023/12/14 04:17:02;;;;;;;;;;;16.60;55.50;;;;;;5066709;28;43048;-84
2023/12/14 04:19:27;;;;;;;;;;;16.30;55.30;;;;;;5066826;28;42835;-82
2023/12/14 04:21:53;;;;;;;;;;;16.60;55.50;;;;;;5066910;28;42795;-84
2023/12/14 04:24:18;;;;;;;;;;;16.50;55.90;;;;;;5066533;28;43535;-84
2023/12/14 04:26:44;;;;;;;;;;;16.60;56.00;;;;;;5067232;28;42883;-84
2023/12/14 04:29:10;;;;;;;;;;;16.40;55.40;;;;;;5067041;28;42848;-83
2023/12/14 04:31:35;;;;;;;;;;;16.40;55.30;;;;;;5065268;28;43274;-84
2023/12/14 04:34:01;;;;;;;;;;;16.40;55.90;;;;;;5065607;28;43704;-81
2023/12/14 04:36:26;;;;;;;;;;;16.60;56.00;;;;;;5066280;28;42993;-84
2023/12/14 04:38:52;;;;;;;;;;;16.60;55.90;;;;;;5066392;28;42890;-81
2023/12/14 04:41:17;;;;;;;;;;;16.40;56.00;;;;;;5065124;28;43029;-83
2023/12/14 04:43:43;;;;;;;;;;;16.50;55.50;;;;;;5066314;28;43642;-81
2023/12/14 04:46:08;;;;;;;;;;;16.50;55.50;;;;;;5066443;28;42976;-83
2023/12/14 04:48:34;;;;;;;;;;;16.50;55.40;;;;;;5066500;28;42941;-82
2023/12/14 04:50:59;;;;;;;;;;;16.50;55.40;;;;;;5064695;28;42969;-84
2023/12/14 04:53:25;;;;;;;;;;;16.50;55.60;;;;;;5065677;28;42985;-84
2023/12/14 04:55:50;;;;;;;;;;;16.40;55.50;;;;;;5066253;28;42849;-80
2023/12/14 04:58:16;;;;;;;;;;;16.50;55.60;;;;;;5066278;28;43602;-80
2023/12/14 05:00:42;;;;;;;;;;;16.40;55.50;;;;;;5066093;28;43001;-81
2023/12/14 05:03:07;;;;;;;;;;;16.50;56.20;;;;;;5066328;28;43327;-83
2023/12/14 05:05:33;;;;;;;;;;;16.70;55.70;;;;;;5065980;28;42941;-83
2023/12/14 05:07:59;;;;;;;;;;;;;;;;;;5064881;28;43507;-84
2023/12/14 05:10:24;;;;;;;;;;;16.50;55.60;;;;;;5066355;28;42885;-83
2023/12/14 05:12:50;;;;;;;;;;;16.50;55.50;;;;;;5065089;28;42827;-83
2023/12/14 05:15:15;;;;;;;;;;;16.50;55.40;;;;;;5065715;28;43060;-84
2023/12/14 05:17:41;;;;;;;;;;;16.60;55.60;;;;;;5066187;28;43604;-84
2023/12/14 05:20:10;;;;;;;;;;;16.70;55.70;;;;;;5066403;28;42902;-82
2023/12/14 05:22:35;;;;;;;;;;;16.50;54.40;;;;;;5066183;28;43728;-84
2023/12/14 05:25:01;;;;;;;;;;;16.40;55.60;;;;;;5065743;28;43201;-81
2023/12/14 05:27:26;;;;;;;;;;;16.80;55.80;;;;;;5063128;28;43353;-83
2023/12/14 05:29:52;;;;;;;;;;;16.60;55.70;;;;;;5066745;28;42934;-82
2023/12/14 05:32:19;;;;;;;;;;;16.50;55.70;;;;;;5072815;28;42798;-83
2023/12/14 05:34:44;;;;;;;;;;;16.50;55.70;;;;;;5070619;28;42872;-81
2023/12/14 05:37:10;;;;;;;;;;;16.60;55.70;;;;;;5064961;28;43652;-83
2023/12/14 05:39:35;;;;;;;;;;;16.40;55.60;;;;;;5047219;28;43049;-84
2023/12/14 05:42:01;;;;;;;;;;;16.40;55.60;;;;;;5063473;28;43654;-84
2023/12/14 05:44:26;;;;;;;;;;;16.60;55.70;;;;;;5065060;28;42945;-81
2023/12/14 05:46:52;;;;;;;;;;;16.30;55.60;;;;;;5065585;28;42827;-81
2023/12/14 05:49:17;;;;;;;;;;;16.40;56.00;;;;;;5065881;28;42920;-81
2023/12/14 05:51:43;;;;;;;;;;;16.50;55.60;;;;;;5064925;28;43429;-81
2023/12/14 05:54:08;;;;;;;;;;;16.60;55.70;;;;;;5046883;28;42954;-83
2023/12/14 05:56:34;;;;;;;;;;;16.50;55.60;;;;;;5065104;28;43757;-84
2023/12/14 05:58:59;;;;;;;;;;;16.60;55.60;;;;;;5065302;28;43004;-81
2023/12/14 06:01:25;;;;;;;;;;;16.40;55.60;;;;;;5063686;28;42953;-81
2023/12/14 06:03:50;;;;;;;;;;;16.50;55.50;;;;;;5051886;28;43059;-81
2023/12/14 06:06:16;;;;;;;;;;;16.50;55.60;;;;;;5050512;28;43027;-82
2023/12/14 06:08:42;;;;;;;;;;;16.60;55.90;;;;;;5044833;28;42923;-82
2023/12/14 06:11:07;;;;;;;;;;;16.60;55.80;;;;;;5049171;28;42958;-82
2023/12/14 06:13:33;;;;;;;;;;;16.60;55.90;;;;;;5059493;28;42994;-84
2023/12/14 06:15:58;;;;;;;;;;;16.50;55.90;;;;;;5060741;28;43585;-82
2023/12/14 06:18:24;;;;;;;;;;;16.40;55.90;;;;;;5062419;28;42938;-82
2023/12/14 06:20:50;;;;;;;;;;;16.70;56.10;;;;;;5044816;28;44556;-83
2023/12/14 06:23:15;;;;;;;;;;;;;;;;;;5060336;28;42970;-84
2023/12/14 06:25:41;;;;;;;;;;;16.40;54.60;;;;;;5065757;28;43763;-82
2023/12/14 06:28:06;;;;;;;;;;;16.40;56.50;;;;;;5067905;28;43137;-83
2023/12/14 06:30:32;;;;;;;;;;;16.50;56.00;;;;;;5068052;28;43604;-82
2023/12/14 06:32:57;;;;;;;;;;;16.50;56.00;;;;;;5067505;28;42974;-84
2023/12/14 06:35:23;;;;;;;;;;;16.60;56.40;;;;;;5059677;28;43664;-83
2023/12/14 06:37:48;;;;;;;;;;;16.40;56.60;;;;;;5065363;28;42859;-82
2023/12/14 06:40:14;;;;;;;;;;;16.50;56.30;;;;;;5064787;28;42942;-84
2023/12/14 06:42:42;;;;;;;;;;;16.60;56.40;;;;;;5064980;28;42943;-82
2023/12/14 06:45:08;;;;;;;;;;;16.50;55.60;;;;;;5064024;28;43088;-83
2023/12/14 06:47:33;;;;;;;;;;;16.40;56.00;;;;;;5067254;28;43080;-84
2023/12/14 06:49:59;;;;;;;;;;;16.40;55.60;;;;;;5066930;28;43662;-82
2023/12/14 06:52:24;;;;;;;;;;;16.70;55.90;;;;;;5067190;28;42914;-82
2023/12/14 06:54:50;;;;;;;;;;;16.40;55.80;;;;;;5067388;28;43757;-81
2023/12/14 06:57:15;;;;;;;;;;;16.50;55.90;;;;;;5067425;28;43289;-82
2023/12/14 06:59:41;;;;;;;;;;;16.50;55.90;;;;;;5067509;28;43081;-81
2023/12/14 07:02:07;;;;;;;;;;;16.10;55.70;;;;;;5064553;28;42948;-81
2023/12/14 07:04:32;;;;;;;;;;;16.60;56.00;;;;;;5067147;28;43409;-82
2023/12/14 07:06:58;;;;;;;;;;;16.40;55.90;;;;;;5066956;28;43020;-82
2023/12/14 07:09:24;;;;;;;;;;;16.30;55.90;;;;;;5066590;28;43280;-81
2023/12/14 07:11:50;;;;;;;;;;;16.50;55.80;;;;;;5067461;28;43072;-83
2023/12/14 07:14:15;;;;;;;;;;;16.50;55.90;;;;;;5066969;28;43349;-83
2023/12/14 07:16:41;;;;;;;;;;;16.60;55.90;;;;;;5067599;28;43410;-81
2023/12/14 07:19:07;;;;;;;;;;;16.50;55.40;;;;;;5048782;28;44630;-82
2023/12/14 07:21:32;;;;;;;;;;;16.60;55.50;;;;;;5067004;28;42906;-81
2023/12/14 07:23:58;;;;;;;;;;;16.50;55.60;;;;;;5065670;28;43029;-82
2023/12/14 07:26:24;;;;;;;;;;;16.50;55.40;;;;;;5060706;28;42946;-84
2023/12/14 07:28:50;;;;;;;;;;;16.50;55.40;;;;;;5063836;28;43677;-85
2023/12/14 07:31:15;;;;;;;;;;;16.50;55.30;;;;;;5067151;28;42879;-82
2023/12/14 07:33:40;;;;;;;;;;;16.30;52.80;;;;;;5065129;28;42937;-81
2023/12/14 07:36:06;;;;;;;;;;;16.40;50.70;;;;;;5065025;28;42930;-81
2023/12/14 07:38:32;;;;;;;;;;;16.10;49.80;;;;;;5067300;28;44456;-82
2023/12/14 07:40:57;;;;;;;;;;;15.80;49.60;;;;;;5059847;28;43526;-79
2023/12/14 07:43:23;;;;;;;;;;;15.90;49.20;;;;;;5048160;28;44553;-81
2023/12/14 07:45:48;;;;;;;;;;;15.70;49.50;;;;;;5048574;28;42989;-82
2023/12/14 07:48:14;;;;;;;;;;;15.50;50.00;;;;;;5070576;28;42988;-82
2023/12/14 07:50:40;;;;;;;;;;;15.40;49.50;;;;;;5074650;28;42883;-79
2023/12/14 07:53:05;;;;;;;;;;;15.20;49.80;;;;;;5067027;28;43628;-81
2023/12/14 07:55:31;;;;;;;;;;;15.40;49.70;;;;;;5066929;28;43147;-80
2023/12/14 07:57:56;;;;;;;;;;;15.30;50.20;;;;;;5064504;28;43521;-80
2023/12/14 08:00:22;;;;;;;;;;;;;;;;;;5064540;28;43013;-82
2023/12/14 08:02:48;;;;;;;;;;;15.30;49.30;;;;;;5065210;28;43591;-81
2023/12/14 08:05:13;;;;;;;;;;;15.20;50.70;;;;;;5066119;28;42935;-81
2023/12/14 08:07:39;;;;;;;;;;;15.20;50.80;;;;;;5065341;28;43781;-81
2023/12/14 08:10:04;;;;;;;;;;;15.00;51.00;;;;;;5066089;28;43175;-81
2023/12/14 08:12:30;;;;;;;;;;;15.00;51.10;;;;;;5065578;28;43674;-80
2023/12/14 08:14:55;;;;;;;;;;;15.30;51.60;;;;;;5062479;28;42992;-81
2023/12/14 08:17:21;;;;;;;;;;;15.10;51.70;;;;;;5065800;28;43018;-79
2023/12/14 08:19:46;;;;;;;;;;;15.00;52.20;;;;;;5065746;28;42992;-80
2023/12/14 08:22:12;;;;;;;;;;;15.10;52.30;;;;;;5065413;28;42953;-79
2023/12/14 08:24:47;;;;;;;;;;;15.10;52.90;;;;;;5066388;28;42997;-81
2023/12/14 08:27:13;;;;;;;;;;;15.20;53.20;;;;;;5066277;28;43454;-81
2023/12/14 08:29:38;;;;;;;;;;;15.30;52.90;;;;;;5066136;28;42924;-81
2023/12/14 08:32:04;;;;;;;;;;;15.20;53.40;;;;;;5066118;28;43306;-81
2023/12/14 08:34:30;;;;;;;;;;;15.10;53.20;;;;;;5066542;28;43020;-81
2023/12/14 08:36:55;;;;;;;;;;;15.40;53.60;;;;;;5064920;28;42913;-80
2023/12/14 08:39:21;;;;;;;;;;;15.30;53.50;;;;;;5066883;28;43042;-79
2023/12/14 08:41:47;;;;;;;;;;;15.20;53.70;;;;;;5066914;28;42770;-80
2023/12/14 08:44:12;;;;;;;;;;;15.20;53.90;;;;;;5067099;28;42894;-79
2023/12/14 08:46:39;;;;;;;;;;;15.30;54.00;;;;;;5066335;28;43232;-80
2023/12/14 08:49:04;;;;;;;;;;;15.20;53.90;;;;;;5065766;28;42752;-80
2023/12/14 08:51:30;;;;;;;;;;;15.20;53.90;;;;;;5065360;28;42981;-79
2023/12/14 08:53:55;;;;;;;;;;;15.10;54.30;;;;;;5063309;28;43044;-80
2023/12/14 08:56:21;;;;;;;;;;;15.20;54.60;;;;;;5064164;28;42959;-81
2023/12/14 08:58:46;;;;;;;;;;;15.10;55.00;;;;;;5066181;28;42898;-80
2023/12/14 09:01:18;;;;;;;;;;;15.30;55.00;;;;;;5065686;28;43514;-80
2023/12/14 09:03:44;;;;;;;;;;;15.10;55.40;;;;;;5065107;28;43101;-81
2023/12/14 09:06:09;;;;;;;;;;;15.30;55.40;;;;;;5066291;28;43499;-82
2023/12/14 09:08:35;;;;;;;;;;;15.30;55.70;;;;;;5065356;28;42958;-81
2023/12/14 09:11:00;;;;;;;;;;;15.10;55.80;;;;;;5066060;28;42832;-83
2023/12/14 09:13:26;;;;;;;;;;;15.10;56.00;;;;;;5056465;28;43007;-79
2023/12/14 09:15:53;;;;;;;;;;;15.40;56.10;;;;;;5044783;28;44158;-80
2023/12/14 09:18:20;;;;;;;;;;;15.20;56.10;;;;;;5044820;28;42995;-80
2023/12/14 09:20:45;;;;;;;;;;;15.40;56.20;;;;;;5046129;28;42930;-80
2023/12/14 09:23:11;;;;;;;;;;;15.50;56.40;;;;;;5047332;28;43134;-80
2023/12/14 09:25:36;;;;;;;;;;;15.30;56.80;;;;;;5054724;28;43521;-80
2023/12/14 09:28:02;;;;;;;;;;;15.30;56.20;;;;;;5045455;28;42744;-79
2023/12/14 09:30:27;;;;;;;;;;;15.40;56.30;;;;;;5044059;28;43438;-80
2023/12/14 09:32:53;;;;;;;;;;;15.20;56.40;;;;;;5057262;28;42972;-80
2023/12/14 09:35:19;;;;;;;;;;;;;;;;;;5046846;28;44497;-81
2023/12/14 09:37:44;;;;;;;;;;;15.40;56.90;;;;;;5065227;28;42842;-80
2023/12/14 09:40:11;;;;;;;;;;;15.30;56.90;;;;;;5064905;28;43208;-80
2023/12/14 09:42:38;;;;;;;;;;;15.30;57.00;;;;;;5065810;28;43013;-79
2023/12/14 09:45:06;;;;;;;;;;;15.40;57.50;;;;;;5066020;28;43445;-80
2023/12/14 09:47:31;;;;;;;;;;;15.30;56.70;;;;;;5065740;28;42863;-81
2023/12/14 09:49:58;;;;;;;;;;;15.30;57.00;;;;;;5065377;28;42886;-81
2023/12/14 09:52:23;;;;;;;;;;;15.20;57.00;;;;;;5065793;28;42895;-80
2023/12/14 09:54:49;;;;;;;;;;;15.40;57.30;;;;;;5063434;28;43337;-80
2023/12/14 09:57:15;;;;;;;;;;;15.30;57.60;;;;;;5061180;28;43034;-81
2023/12/14 09:59:41;;;;;;;;;;;15.40;57.50;;;;;;5064290;28;43656;-80
2023/12/14 10:02:11;;;;;;;;;;;15.40;57.80;;;;;;5064479;28;42896;-80
2023/12/14 10:04:37;;;;;;;;;;;15.40;57.80;;;;;;5067941;28;43561;-79
2023/12/14 10:07:06;;;;;;;;;;;15.40;57.70;;;;;;5072528;28;43016;-80
2023/12/14 10:09:32;;;;;;;;;;;15.50;57.90;;;;;;5063300;28;43672;-80
2023/12/14 10:12:05;;;;;;;;;;;15.50;58.30;;;;;;5064901;28;42981;-80
2023/12/14 10:14:31;;;;;;;;;;;15.50;57.80;;;;;;5060052;28;43444;-80
2023/12/14 10:16:56;;;;;;;;;;;15.50;57.70;;;;;;5064770;28;43076;-80
2023/12/14 10:19:22;;;;;;;;;;;15.50;57.60;;;;;;5064843;28;43511;-80
2023/12/14 10:21:48;;;;;;;;;;;15.50;57.60;;;;;;5064244;28;43100;-80
2023/12/14 10:24:14;;;;;;;;;;;15.50;58.20;;;;;;5061824;28;43662;-80
2023/12/14 10:26:40;;;;;;;;;;;15.60;57.60;;;;;;5062842;28;43114;-80
2023/12/14 10:29:06;;;;;;;;;;;15.80;57.70;;;;;;5063414;28;43586;-79
2023/12/14 10:31:31;;;;;;;;;;;15.70;57.60;;;;;;5064041;28;43037;-80
2023/12/14 10:33:57;;;;;;;;;;;15.70;57.60;;;;;;5063811;28;43367;-80
2023/12/14 10:36:24;;;;;;;;;;;15.80;57.40;;;;;;5061766;28;42950;-80
2023/12/14 10:38:52;;;;;;;;;;;15.80;58.00;;;;;;5064413;28;42918;-80
2023/12/14 10:41:18;;;;;;;;;;;15.70;57.50;;;;;;5043510;28;42928;-81
2023/12/14 10:43:44;;;;;;;;;;;15.60;58.10;;;;;;5045040;28;44783;-81
2023/12/14 10:46:10;;;;;;;;;;;15.70;58.00;;;;;;5064283;28;42947;-82
2023/12/14 10:48:42;;;;;;;;;;;15.80;57.70;;;;;;5064527;28;43599;-81
2023/12/14 10:51:08;;;;;;;;;;;15.70;58.20;;;;;;5063975;28;42878;-81
2023/12/14 10:53:35;;;;;;;;;;;15.70;58.20;;;;;;5063207;28;42906;-81
2023/12/14 10:56:02;;;;;;;;;;;15.70;57.80;;;;;;5045016;28;43169;-82
2023/12/14 10:58:46;;;;;;;;;;;15.70;57.90;;;;;;5062336;28;43440;-81
2023/12/14 11:01:13;;;;;;;;;;;15.70;57.90;;;;;;5060296;28;44208;-80
2023/12/14 11:03:40;;;;;;;;;;;15.60;58.00;;;;;;5060841;28;43674;-80
2023/12/14 11:06:16;;;;;;;;;;;15.50;57.70;;;;;;5063003;28;42756;-79
2023/12/14 11:08:41;;;;;;;;;;;15.70;57.30;;;;;;5062296;28;43930;-80
2023/12/14 11:11:10;;;;;;;;;;;15.60;57.60;;;;;;5065452;28;43184;-79
2023/12/14 11:13:38;;;;;;;;;;;15.70;56.70;;;;;;5051588;28;43575;-79
2023/12/14 11:16:04;;;;;;;;;;;15.70;56.70;;;;;;5068016;28;42880;-80
2023/12/14 11:18:30;;;;;;;;;;;15.70;57.10;;;;;;5067774;28;43579;-79
2023/12/14 11:20:59;;;;;;;;;;;15.50;56.80;;;;;;5067296;28;42993;-79
2023/12/14 11:23:24;;;;;;;;;;;15.60;56.20;;;;;;5066555;28;42943;-80
2023/12/14 11:25:54;;;;;;;;;;;15.60;56.50;;;;;;5065784;28;42966;-80
2023/12/14 11:28:20;;;;;;;;;;;15.80;56.60;;;;;;5066328;28;43619;-80
2023/12/14 11:30:46;;;;;;;;;;;15.80;56.70;;;;;;5067170;28;42955;-80
2023/12/14 11:33:12;;;;;;;;;;;15.70;56.60;;;;;;5067261;28;42945;-80
2023/12/14 11:35:37;;;;;;;;;;;15.80;56.50;;;;;;5067281;28;42928;-80
2023/12/14 11:38:10;;;;;;;;;;;15.80;56.20;;;;;;5065150;28;43598;-80
2023/12/14 11:40:44;;;;;;;;;;;15.70;56.30;;;;;;5064445;28;42868;-80
2023/12/14 11:43:10;;;;;;;;;;;15.60;56.80;;;;;;5062478;28;42888;-79
2023/12/14 11:45:36;;;;;;;;;;;15.70;56.90;;;;;;5066962;28;43083;-81
2023/12/14 11:48:06;;;;;;;;;;;15.60;57.10;;;;;;5061934;28;42989;-81
2023/12/14 11:50:33;;;;;;;;;;;15.70;56.70;;;;;;5067343;28;42875;-80
2023/12/14 11:53:00;;;;;;;;;;;15.70;57.00;;;;;;5066054;28;43655;-79
2023/12/14 11:55:26;;;;;;;;;;;15.80;57.10;;;;;;5066974;28;43086;-80
2023/12/14 11:57:53;;;;;;;;;;;16.60;57.50;;;;;;5066392;28;43777;-80
2023/12/14 12:00:22;;;;;;;;;;;15.80;57.20;;;;;;5064912;28;43011;-80
2023/12/14 12:02:48;;;;;;;;;;;16.00;56.80;;;;;;5066332;28;43002;-80
2023/12/14 12:05:18;;;;;;;;;;;15.90;57.50;;;;;;5066631;28;42821;-79
2023/12/14 12:07:44;;;;;;;;;;;16.10;57.40;;;;;;5061415;28;43227;-80
2023/12/14 12:10:10;;;;;;;;;;;15.90;57.90;;;;;;5061719;28;43096;-81
2023/12/14 12:12:36;;;;;;;;;;;15.90;57.50;;;;;;5061545;28;44080;-80
2023/12/14 12:15:01;;;;;;;;;;;15.90;58.00;;;;;;5066011;28;43066;-81
2023/12/14 12:17:27;;;;;;;;;;;16.00;58.20;;;;;;5061760;28;42871;-81
2023/12/14 12:19:52;;;;;;;;;;;15.80;57.60;;;;;;5076998;28;42941;-81
2023/12/14 12:22:18;;;;;;;;;;;16.00;57.50;;;;;;5067455;28;43136;-80
2023/12/14 12:24:43;;;;;;;;;;;16.00;57.50;;;;;;5065665;28;43650;-81
2023/12/14 12:27:09;;;;;;;;;;;15.90;57.60;;;;;;5066875;28;43868;-82
2023/12/14 12:29:34;;;;;;;;;;;15.90;57.80;;;;;;5064937;28;42737;-78
2023/12/14 12:32:00;;;;;;;;;;;16.00;57.50;;;;;;5064903;28;43635;-85
2023/12/14 12:34:25;;;;;;;;;;;15.90;57.40;;;;;;5066494;28;42933;-85
2023/12/14 12:36:51;;;;;;;;;;;16.00;56.80;;;;;;5066506;28;42793;-84
2023/12/14 12:39:16;;;;;;;;;;;16.00;56.60;;;;;;5063199;28;42886;-85
2023/12/14 12:41:42;;;;;;;;;;;16.10;57.10;;;;;;5066798;28;43679;-85
2023/12/14 12:44:08;;;;;;;;;;;16.20;56.80;;;;;;5061419;28;42811;-84
2023/12/14 12:46:37;;;;;;;;;;;16.00;56.60;;;;;;5063571;28;42985;-85
2023/12/14 12:49:04;;;;;;;;;;;16.10;55.30;;;;;;5066461;28;42991;-84
2023/12/14 12:51:30;;;;;;;;;;;15.90;57.00;;;;;;5066204;28;43490;-84
2023/12/14 12:53:57;;;;;;;;;;;16.10;57.10;;;;;;5063081;28;43025;-86
2023/12/14 12:56:27;;;;;;;;;;;15.90;56.90;;;;;;5065810;28;42839;-81
2023/12/14 12:58:53;;;;;;;;;;;16.00;56.60;;;;;;5065708;28;42971;-86
2023/12/14 13:01:22;;;;;;;;;;;16.00;56.90;;;;;;5065812;28;43615;-87
2023/12/14 13:03:54;;;;;;;;;;;16.10;56.60;;;;;;5065467;28;42994;-81
2023/12/14 13:06:20;;;;;;;;;;;16.20;55.30;;;;;;5060718;28;43648;-82
2023/12/14 13:08:46;;;;;;;;;;;16.20;56.60;;;;;;5062560;28;42883;-80
2023/12/14 13:11:11;;;;;;;;;;;16.30;56.90;;;;;;5051202;28;43092;-82
2023/12/14 13:13:37;;;;;;;;;;;16.10;56.80;;;;;;5046212;28;42970;-81
2023/12/14 13:16:03;;;;;;;;;;;16.30;56.50;;;;;;5046637;28;42961;-81
2023/12/14 13:18:28;;;;;;;;;;;16.20;56.40;;;;;;5046138;28;42874;-81
2023/12/14 13:20:54;;;;;;;;;;;16.20;56.70;;;;;;5047068;28;43417;-81
2023/12/14 13:23:19;;;;;;;;;;;16.30;56.30;;;;;;5046650;28;42983;-79
2023/12/14 13:25:44;;;;;;;;;;;16.20;56.20;;;;;;5046277;28;43078;-82
2023/12/14 13:28:10;;;;;;;;;;;16.40;56.30;;;;;;5045993;28;43057;-81
2023/12/14 13:30:36;;;;;;;;;;;16.30;56.30;;;;;;5046304;28;42929;-81
2023/12/14 13:33:03;;;;;;;;;;;16.20;56.30;;;;;;5046507;28;42963;-82
2023/12/14 13:35:29;;;;;;;;;;;16.40;56.30;;;;;;5045260;28;43382;-82
2023/12/14 13:37:55;;;;;;;;;;;16.30;56.20;;;;;;5046121;28;42872;-80
2023/12/14 13:40:20;;;;;;;;;;;16.40;56.40;;;;;;5045501;28;42954;-82
2023/12/14 13:42:46;;;;;;;;;;;16.40;56.40;;;;;;5044970;28;42917;-81
2023/12/14 13:45:11;;;;;;;;;;;16.40;56.30;;;;;;5045704;28;42852;-82
2023/12/14 13:47:37;;;;;;;;;;;16.30;56.10;;;;;;5046446;28;42860;-82
2023/12/14 13:50:04;;;;;;;;;;;16.30;56.10;;;;;;5045527;28;44470;-81
2023/12/14 13:52:30;;;;;;;;;;;16.60;56.20;;;;;;5044662;28;43220;-81
2023/12/14 13:54:55;;;;;;;;;;;16.50;56.10;;;;;;5045816;28;42998;-80
2023/12/14 13:57:21;;;;;;;;;;;16.30;56.00;;;;;;5045840;28;42768;-82
2023/12/14 13:59:47;;;;;;;;;;;16.40;55.90;;;;;;5045486;28;44069;-81
2023/12/14 14:02:13;;;;;;;;;;;16.40;56.10;;;;;;5046042;28;42861;-82
2023/12/14 14:04:39;;;;;;;;;;;;;;;;;;5045476;28;43455;-81
2023/12/14 14:07:04;;;;;;;;;;;16.30;56.10;;;;;;5027341;28;42930;-82
2023/12/14 14:09:30;;;;;;;;;;;16.40;55.90;;;;;;5045547;28;42910;-82
2023/12/14 14:11:56;;;;;;;;;;;16.40;56.00;;;;;;5045653;28;42931;-82